CCGS Louis S. St-Laurent — CGBN — position and weather

sailwx.info

Track history (hours):
 
Tides and Currents Weather Stations Pressure Air Temp Water Temp Dewpoint Dewpoint Depression Visibility Wind Speed Wind Dir Waves Ship Positions

Oceanographic research ship CCGS Louis S. St-Laurent (Canada)

Detailed information on ship capabilities available from ARCUS's ALIAS (Arctic Logistics Information and Support) project.

Last reported at 2019-Mar-25 23:00 UTC. Time now 2019-Mar-25 23:53 UTC.
Position N 48°48' W 064°24'.

Length 119.63 m; beam 24.38 m; draft 9.9 m.

MMSI: 316165000.

Wind from 270 at 2 knots

Barometer 1011.9 mb
Air temperature -7.0 ° C
Dewpoint -6.9 ° C

Date/timePositionNaut miles runAvg speedWind from/ knotsBaromVisibWave heightAir tempDewpointWater temp
2019-Mar-25 23:00N 48°48' W 064°24'0 0.0 270 / 21011.9 -7.0-6.9
2019-Mar-25 22:00N 48°48' W 064°24'0 0.0 250 / 21010.5 -5.2-5.1
2019-Mar-25 21:00N 48°48' W 064°24'0 0.0 270 / 231009.3 -5.5-5.4
2019-Mar-25 20:00N 48°48' W 064°24'4 4.0 250 / 111008.7 -5.5-5.4
2019-Mar-25 19:00N 48°48' W 064°18'2019.9 240 / 301008.1 -6.0-6.0
2019-Mar-25 18:00N 48°36' W 063°54'1716.9 280 / 171008.8 -5.4-5.3
2019-Mar-25 17:00N 48°24' W 064°12'1717.0 270 / 131009.1 -5.3-5.2
2019-Mar-25 16:00N 48°12' W 064°30'2221.7 230 / 191009.9 -3.6-3.4
2019-Mar-25 15:00N 47°54' W 064°48'0 0.0 250 / 211010.9 -6.2-6.0
2019-Mar-25 14:00N 47°54' W 064°48'1010.0 270 / 201010.8 -7.0-6.8
2019-Mar-25 13:00N 48°00' W 064°36'1010.0 250 / 131011.8 -5.4-5.2
2019-Mar-25 12:00N 47°54' W 064°48'0 0.0 300 / 21012.3 -5.4-5.1
2019-Mar-25 11:00N 47°54' W 064°48'1312.7 300 / 91012.6 -7.4-7.2
2019-Mar-25 10:00N 48°06' W 064°42'8 8.0 270 / 121012.5 -7.4-7.4
2019-Mar-25 09:00N 48°06' W 064°30'1010.0 280 / 91012.4 -7.0-6.8
2019-Mar-25 08:00N 48°12' W 064°18'1212.0 340 / 101011.9 -6.9-6.6
2019-Mar-25 07:00N 48°12' W 064°00'1010.0 360 / 141011.0 -5.7-5.4
2019-Mar-25 06:00N 48°06' W 063°48'1212.0 350 / 171010.7 -5.0-4.6
2019-Mar-25 05:00N 48°06' W 063°30'1212.0 350 / 181010.4 -4.3-3.9
2019-Mar-25 04:00N 48°06' W 063°12'1616.0 320 / 151010.5 -3.2-2.7
2019-Mar-25 03:00N 48°06' W 062°48'1616.0 320 / 191009.3 -2.9-2.5
2019-Mar-25 02:00N 48°06' W 062°24'1717.1 320 / 191008.9 -2.8-2.3
2019-Mar-25 01:00N 48°00' W 062°00'1616.1 320 / 221008.1 -2.6-2.1
2019-Mar-25 00:00N 48°00' W 061°36'1313.5 320 / 251007.3 -2.8-2.3
2019-Mar-24 23:00N 47°54' W 061°18'1616.1 300 / 191005.1 -1.8-1.2
2019-Mar-24 22:00N 47°54' W 060°54'0 0.0 280 / 171003.6 -0.1 0.6
2019-Mar-24 21:00N 47°54' W 060°54'1616.1 270 / 321001.9 0.1 0.9
2019-Mar-24 20:00N 47°54' W 060°30'1212.1 240 / 221001.5 -0.8-0.1
2019-Mar-24 19:00N 47°54' W 060°12'0 0.0 260 / 151002.0 -0.6 0.1
2019-Mar-24 18:00N 47°54' W 060°12'0 0.0 260 / 161001.0 0.6 1.3
2019-Mar-24 17:00N 47°54' W 060°12'0 0.0 220 / 21000.8 1.6 2.4
2019-Mar-24 16:00N 47°54' W 060°12'0 0.0 220 / 21000.0 1.9 2.5
2019-Mar-24 15:00N 47°54' W 060°12'0 0.0 240 / 2999.5 1.7 2.5
2019-Mar-24 14:00N 47°54' W 060°12'8 8.0 250 / 2998.7 1.5 2.3
2019-Mar-24 13:00N 47°54' W 060°24'1414.5 280 / 15998.2 -0.7 0.1
2019-Mar-24 12:00N 47°42' W 060°36'1414.5 280 / 18998.3 -1.1-0.3
2019-Mar-24 11:00N 47°30' W 060°48'7 7.2 280 / 21997.5 -1.7-1.0
2019-Mar-24 10:00N 47°24' W 060°54'0 0.0 260 / 15996.5 -1.2-0.4
2019-Mar-24 09:00N 47°24' W 060°54'1312.7 300 / 24995.0 -1.4-0.5
2019-Mar-24 08:00N 47°36' W 060°48'6 6.0 310 / 26993.4 -1.5-0.7
2019-Mar-24 07:00N 47°42' W 060°48'7 7.2 310 / 26991.7 -1.2-0.2
2019-Mar-24 06:00N 47°48' W 060°42'6 6.0 290 / 25990.3 -1.2-0.3
2019-Mar-24 05:00N 47°42' W 060°42'1413.5 290 / 25988.1 -0.7 0.4
2019-Mar-24 04:00N 47°36' W 060°24'1413.5 260 / 17987.5 -0.0 1.1
2019-Mar-24 03:00N 47°30' W 060°06'1413.6 240 / 15987.3 0.4 1.5
2019-Mar-24 02:00N 47°24' W 059°48'1413.6 220 / 11987.1 0.4 1.5
2019-Mar-24 01:00N 47°30' W 059°30'1212.2 180 / 12987.4 -0.4 0.6
2019-Mar-24 00:00N 47°30' W 059°12'7 7.2 140 / 3987.5 -0.0 1.1
2019-Mar-23 23:00N 47°36' W 059°06'0 0.0 090 / 9987.4 0.7 1.8
2019-Mar-23 22:00N 47°36' W 059°06'0 0.0 090 / 9987.9 0.4 1.5
2019-Mar-23 21:00N 47°36' W 059°06'7 7.2 090 / 10988.3 0.6 1.6
2019-Mar-23 20:00N 47°30' W 059°00'0 0.0 100 / 13988.7 0.8 1.9
2019-Mar-23 19:00N 47°30' W 059°00'0 0.0 110 / 14989.2 0.7 1.7
2019-Mar-23 18:00N 47°30' W 059°00'0 0.0 090 / 10989.9 1.7 2.8
2019-Mar-23 17:00N 47°30' W 059°00'0 0.0 120 / 12991.1 1.9 3.2
2019-Mar-23 16:00N 47°30' W 059°00'0 0.0 110 / 7991.3 1.5 2.6
2019-Mar-23 15:00N 47°30' W 059°00'0 0.0 160 / 10991.6 1.6 2.7
2019-Mar-23 14:00N 47°30' W 059°00'4 4.1 160 / 8991.9 1.7 2.8
2019-Mar-23 13:00N 47°30' W 058°54'0 0.0 180 / 8991.8 1.6 2.8
2019-Mar-23 12:00N 47°30' W 058°54'0 0.0 120 / 8991.7 1.2 2.3
2019-Mar-23 11:00N 47°30' W 058°54'0 0.0 090 / 13991.7 0.5 1.6
2019-Mar-23 10:00N 47°30' W 058°54'0 0.0 080 / 16991.2 0.6 1.8
2019-Mar-23 09:00N 47°30' W 058°54'0 0.0 080 / 20991.3 0.7 1.8
2019-Mar-23 08:00N 47°30' W 058°54'0 0.0 070 / 22991.9 1.1 2.3
2019-Mar-23 07:00N 47°30' W 058°54'0 0.0 070 / 21993.2 0.8 1.8
2019-Mar-23 06:00N 47°30' W 058°54'0 0.0 080 / 18994.1 1.5 2.5
2019-Mar-23 05:00N 47°30' W 058°54'4 4.1 070 / 22994.9 0.8 1.8
2019-Mar-23 04:00N 47°30' W 059°00'1212.2 070 / 26994.6 1.0 2.0
2019-Mar-23 03:00N 47°30' W 059°18'2713.5 090 / 34994.7 1.1 2.0
2019-Mar-23 01:00N 47°48' W 059°48'6 6.0 110 / 45995.9 2.2 3.1
2019-Mar-23 00:00N 47°54' W 059°48'0 0.0 090 / 10998.4 2.3 3.2
2019-Mar-22 23:00N 47°54' W 059°48'0 0.0 090 / 351001.1 1.3 2.1
2019-Mar-22 22:00N 47°54' W 059°48'7 7.2 110 / 281003.8 2.9 3.7
2019-Mar-22 21:00N 47°48' W 059°42'1212.0 130 / 321005.6 1.9 2.7
2019-Mar-22 20:00N 47°36' W 059°42'1212.0 110 / 331007.5 0.1 0.9
2019-Mar-22 19:00N 47°24' W 059°42'1312.7 110 / 281010.8 0.5 1.3
2019-Mar-22 18:00N 47°12' W 059°36'1212.0 120 / 231012.4 0.7 1.5
2019-Mar-22 17:00N 47°00' W 059°36'7 7.3 140 / 241014.0 0.6 1.4
2019-Mar-22 16:00N 46°54' W 059°30'1212.0 140 / 191014.8 1.5 2.3
2019-Mar-22 15:00N 46°42' W 059°30'1514.5 120 / 231015.2 1.3 2.1
2019-Mar-22 14:00N 46°54' W 059°42'1312.7 140 / 191016.5 1.2 2.0
2019-Mar-22 13:00N 47°06' W 059°48'1212.0 120 / 141017.7 -0.0 0.7
2019-Mar-22 12:00N 47°18' W 059°48'1818.5 110 / 211017.7 -0.6 0.1
2019-Mar-22 11:00N 47°36' W 059°42'1212.0 110 / 221019.2 -1.5-0.9
2019-Mar-22 10:00N 47°48' W 059°42'7 7.2 140 / 91020.0 0.4 1.0
2019-Mar-22 09:00N 47°42' W 059°36'0 0.0 140 / 201020.5 -1.5-1.0
2019-Mar-22 08:00N 47°42' W 059°36'6 6.0 140 / 161021.2 -1.5-1.0
2019-Mar-22 07:00N 47°36' W 059°36'1818.0 160 / 141022.1 -0.7-0.2
2019-Mar-22 06:00N 47°18' W 059°36'2424.3 180 / 181022.9 0.2 0.7
2019-Mar-22 05:00N 46°54' W 059°30'1212.0 190 / 181023.6 0.1 0.7
2019-Mar-22 04:00N 46°42' W 059°30'1818.5 190 / 151024.3 -0.1 0.5
2019-Mar-22 03:00N 46°24' W 059°36'1818.0 200 / 161025.0 -0.4 0.1
2019-Mar-22 02:00N 46°06' W 059°36'1312.7 190 / 151025.7 -0.7-0.1
2019-Mar-22 01:00N 45°54' W 059°42'1514.6 190 / 171026.6 -0.5 0.1
2019-Mar-22 00:00N 45°42' W 059°54'2120.6 190 / 171026.2 -0.5 0.1
2019-Mar-21 23:00N 45°30' W 060°18'1717.4 190 / 121025.6 -0.5 0.1
2019-Mar-21 22:00N 45°18' W 060°36'1717.5 190 / 101025.6 -0.2 0.4
2019-Mar-21 21:00N 45°06' W 060°54'1818.0 200 / 181025.8 0.2 0.8
2019-Mar-21 20:00N 45°00' W 061°18'1818.0 200 / 161026.1 0.4 1.0
2019-Mar-21 19:00N 44°54' W 061°42'1414.1 190 / 171026.3 0.6 1.1
2019-Mar-21 18:00N 44°48' W 062°00'1818.1 190 / 141026.4 0.7 1.2
2019-Mar-21 17:00N 44°42' W 062°24'2120.9 200 / 121027.2 0.5 1.0
2019-Mar-21 16:00N 44°30' W 062°48'1818.2 210 / 101027.7 0.8 1.4
2019-Mar-21 15:00N 44°24' W 063°12'1414.2 190 / 81028.1 0.7 1.2
2019-Mar-21 14:00N 44°30' W 063°30'116.3 190 / 101027.9 1.8 2.3
2019-Mar-21 13:56N 44°31' W 063°31'613.3
2019-Mar-21 13:31N 44°36' W 063°33'4 7.4
2019-Mar-21 13:00N 44°40' W 063°35'2170.1
2019-Mar-21 13:00N 44°42' W 063°36'2 3.0 140 / 31028.2 0.6 1.1
2019-Mar-21 12:29N 44°41' W 063°36'2 3.1
2019-Mar-21 12:00N 44°42' W 063°36'2547.3 150 / 31028.3 -0.8-0.3
2019-Mar-21 11:59N 44°41' W 063°36'0 0.0
2019-Mar-21 11:29N 44°41' W 063°36'2 3.1
2019-Mar-21 11:00N 44°42' W 063°36'2497.2 150 / 21028.1 -0.5-0.1
2019-Mar-21 10:59N 44°41' W 063°36'0 0.0
2019-Mar-21 10:29N 44°41' W 063°36'2 3.1
2019-Mar-21 10:00N 44°42' W 063°36'2544.9 170 / 11028.1 -2.3-2.1
2019-Mar-21 09:59N 44°41' W 063°36'0 0.0
2019-Mar-21 09:29N 44°41' W 063°36'2 3.1
2019-Mar-21 09:00N 44°42' W 063°36'2547.3 260 / 11028.2 -1.2-0.9
2019-Mar-21 08:59N 44°41' W 063°36'0 0.0
2019-Mar-21 08:29N 44°41' W 063°36'2 3.1
2019-Mar-21 08:00N 44°42' W 063°36'2547.0 260 / 31028.1 -0.8-0.6
2019-Mar-21 07:59N 44°41' W 063°36'0 0.0
2019-Mar-21 07:29N 44°41' W 063°36'2 3.1
2019-Mar-21 07:00N 44°42' W 063°36'2455.8 240 / 31028.6 -1.2-1.0
2019-Mar-21 06:59N 44°41' W 063°36'0 0.0
2019-Mar-21 06:29N 44°41' W 063°36'2 3.1
2019-Mar-21 06:00N 44°42' W 063°36'2497.2 250 / 11028.9 -1.5-1.4
2019-Mar-21 05:59N 44°41' W 063°36'0 0.0
2019-Mar-21 05:29N 44°41' W 063°36'2 3.1
2019-Mar-21 05:00N 44°42' W 063°36'2547.0 1028.7 -1.4-1.2
2019-Mar-21 04:59N 44°41' W 063°36'0 0.0
2019-Mar-21 04:29N 44°41' W 063°36'2 3.1
2019-Mar-21 04:00N 44°42' W 063°36'2456.1 270 / 21028.6 -1.0-0.9
2019-Mar-21 03:59N 44°41' W 063°36'0 0.0
2019-Mar-21 03:29N 44°41' W 063°36'2 3.1
2019-Mar-21 03:00N 44°42' W 063°36'2547.0 270 / 31028.5 -0.1-0.0
2019-Mar-21 02:59N 44°41' W 063°36'0 0.0
2019-Mar-21 02:29N 44°41' W 063°36'2 3.1
2019-Mar-21 02:00N 44°42' W 063°36'2455.8 1027.9 -0.4-0.1
2019-Mar-21 01:59N 44°41' W 063°36'0 0.0
2019-Mar-21 01:29N 44°41' W 063°36'0 0.0
2019-Mar-21 00:59N 44°41' W 063°36'0 0.0
2019-Mar-21 00:29N 44°41' W 063°36'2 3.1
2019-Mar-21 00:00N 44°42' W 063°36'2497.2 220 / 41026.8 0.2 0.5
2019-Mar-20 23:59N 44°41' W 063°36'0 0.0
2019-Mar-20 23:29N 44°41' W 063°36'2 3.1
2019-Mar-20 23:00N 44°42' W 063°36'0 0.0 210 / 31026.4 0.8 1.1
2019-Mar-20 22:00N 44°42' W 063°36'0 0.0 240 / 61026.1 2.0 2.2
2019-Mar-20 21:00N 44°42' W 063°36'0 0.0 240 / 91026.1 2.8 3.0
2019-Mar-20 20:00N 44°42' W 063°36'0 0.0 220 / 71026.2 3.3 3.5
2019-Mar-20 19:00N 44°42' W 063°36'0 0.0 240 / 91026.4 4.5 4.7
2019-Mar-20 18:00N 44°42' W 063°36'0 0.0 260 / 71027.0 4.6 4.8
2019-Mar-20 17:00N 44°42' W 063°36'0 0.0 260 / 91028.0 3.6 3.8
2019-Mar-20 16:00N 44°42' W 063°36'0 0.0 260 / 71028.3 3.0 3.1
2019-Mar-20 15:00N 44°42' W 063°36'0 0.0 290 / 71028.7 1.3 1.4
2019-Mar-20 14:00N 44°42' W 063°36'0 0.0 280 / 31029.1 1.5 1.7
2019-Mar-20 13:00N 44°42' W 063°36'0 0.0 240 / 11029.1 -0.6-0.4
2019-Mar-20 12:00N 44°42' W 063°36'0 0.0 260 / 11028.9 -2.2-2.0
2019-Mar-20 11:00N 44°42' W 063°36'0 0.0 240 / 11028.7 -3.1-2.9
2019-Mar-20 10:00N 44°42' W 063°36'0 0.0 280 / 31027.9 -3.7-3.6
2019-Mar-20 09:00N 44°42' W 063°36'0 0.0 280 / 31027.5 -3.9-3.8
2019-Mar-20 08:00N 44°42' W 063°36'0 0.0 280 / 61027.4 -3.7-3.6
2019-Mar-20 07:00N 44°42' W 063°36'0 0.0 1027.6 -2.8-2.6
2019-Mar-20 06:00N 44°42' W 063°36'0 0.0 290 / 11027.7 -2.0-1.9
2019-Mar-20 05:00N 44°42' W 063°36'0 0.0 1027.6 -3.4-3.3
2019-Mar-20 04:00N 44°42' W 063°36'0 0.0 070 / 11027.5 -2.8-2.7
2019-Mar-20 03:00N 44°42' W 063°36'0 0.0 1027.4 -2.4-2.2
2019-Mar-20 02:00N 44°42' W 063°36'0 0.0 290 / 31027.2 -1.4-1.3
2019-Mar-20 01:00N 44°42' W 063°36'0 0.0 280 / 11026.9 -0.5-0.3
2019-Mar-20 00:00N 44°42' W 063°36'0 0.0 1026.4 -0.3-0.1
2019-Mar-19 23:00N 44°42' W 063°36'0 0.0 1025.4 0.3 0.5
2019-Mar-19 22:00N 44°42' W 063°36'0 0.0 300 / 51024.6 2.2 2.3
2019-Mar-19 21:00N 44°42' W 063°36'0 0.0 280 / 31024.1 2.2 2.4
2019-Mar-19 20:00N 44°42' W 063°36'0 0.0 280 / 61024.3 1.4 1.6
2019-Mar-19 19:00N 44°42' W 063°36'0 0.0 1024.5 2.7 3.0
2019-Mar-19 18:00N 44°42' W 063°36'0 0.0 280 / 31024.6 2.5 2.8
2019-Mar-19 17:00N 44°42' W 063°36'0 0.0 110 / 61025.4 -0.3-0.1
2019-Mar-19 16:00N 44°42' W 063°36'0 0.0 280 / 31025.6 0.5 0.7
2019-Mar-19 15:00N 44°42' W 063°36'0 0.0 360 / 11026.0 0.7 0.9
2019-Mar-19 14:00N 44°42' W 063°36'0 0.0 280 / 41026.2 -1.7-1.5
2019-Mar-19 13:00N 44°42' W 063°36'0 0.0 270 / 21026.0 -2.5-2.2
2019-Mar-19 12:00N 44°42' W 063°36'214.1 340 / 21025.7 -4.0-3.7
2019-Mar-19 11:53N 44°41' W 063°38'0 0.2
2019-Mar-19 11:29N 44°41' W 063°38'2 3.3
2019-Mar-19 11:00N 44°42' W 063°36'225.0 320 / 31025.5 -5.7-5.5
2019-Mar-19 10:56N 44°41' W 063°37'3 6.3
2019-Mar-19 10:30N 44°39' W 063°34'5 8.7
2019-Mar-19 10:00N 44°36' W 063°30'3 9.2 1024.9 -4.2-4.0
2019-Mar-19 09:38N 44°39' W 063°33'3 5.1
2019-Mar-19 09:00N 44°36' W 063°30'0 0.0 310 / 11024.3 -3.7-3.5
2019-Mar-19 08:00N 44°36' W 063°30'0 0.0 320 / 31023.6 -2.7-2.5
2019-Mar-19 07:00N 44°36' W 063°30'0 0.0 310 / 31023.8 -2.8-2.5
2019-Mar-19 06:00N 44°36' W 063°30'0 0.0 310 / 51023.9 -2.3-2.0
2019-Mar-19 05:00N 44°36' W 063°30'0 0.0 290 / 51023.8 -1.8-1.5
2019-Mar-19 04:00N 44°36' W 063°30'0 0.0 270 / 91023.6 -1.5-1.3
2019-Mar-19 03:00N 44°36' W 063°30'0 0.0 270 / 81023.6 -1.6-1.4
2019-Mar-19 02:00N 44°36' W 063°30'0 0.0 270 / 71023.3 -0.9-0.7
2019-Mar-19 01:00N 44°36' W 063°30'0 0.0 290 / 71022.8 -0.6-0.4
2019-Mar-19 00:00N 44°36' W 063°30'0 0.0 300 / 101021.6 -0.1 0.1
2019-Mar-18 23:00N 44°36' W 063°30'0 0.0 300 / 131020.4 0.6 0.8
2019-Mar-18 22:00N 44°36' W 063°30'0 0.0 280 / 131019.2 1.6 1.9
2019-Mar-18 21:00N 44°36' W 063°30'0 0.0 290 / 131018.3 1.6 1.9
2019-Mar-18 20:00N 44°36' W 063°30'0 0.0 270 / 111018.0 1.7 1.9
2019-Mar-18 19:00N 44°36' W 063°30'0 0.0 260 / 161018.3 1.0 1.3
2019-Mar-18 18:00N 44°36' W 063°30'0 0.0 250 / 121018.4 0.4 0.6
2019-Mar-18 17:00N 44°36' W 063°30'0 0.0 280 / 101018.6 -0.4-0.2
2019-Mar-18 16:00N 44°36' W 063°30'0 0.0 270 / 131019.0 -1.1-0.9
2019-Mar-18 15:00N 44°36' W 063°30'0 0.0 290 / 131019.3 -2.0-1.8
2019-Mar-18 14:00N 44°36' W 063°30'0 0.0 270 / 131019.5 -2.5-2.2
2019-Mar-18 13:00N 44°36' W 063°30'0 0.0 260 / 101019.6 -2.9-2.6
2019-Mar-18 12:00N 44°36' W 063°30'0 0.0 280 / 91019.7 -3.2-2.9
2019-Mar-18 11:00N 44°36' W 063°30'3117.4 250 / 71019.3 -3.7-3.4
2019-Mar-18 10:58N 44°39' W 063°33'3 3.5
2019-Mar-18 10:00N 44°36' W 063°30'7 7.4 220 / 71018.9 -4.9-4.7
2019-Mar-18 09:00N 44°30' W 063°24'4 4.3 270 / 71018.4 -3.8-3.6
2019-Mar-18 08:00N 44°30' W 063°18'1312.8 310 / 101018.0 -3.4-3.2
2019-Mar-18 07:00N 44°30' W 063°00'1010.4 330 / 171017.5 -2.9-2.7
2019-Mar-18 06:00N 44°36' W 062°48'9 8.5 320 / 151017.6 -2.4-2.2
2019-Mar-18 05:00N 44°36' W 062°36'1010.4 290 / 151016.9 -1.9-1.6
2019-Mar-18 04:00N 44°42' W 062°24'1414.1 280 / 211015.8 -1.5-1.2
2019-Mar-18 03:00N 44°48' W 062°06'9 8.5 260 / 211015.4 -1.4-1.1
2019-Mar-18 02:00N 44°48' W 061°54'1010.4 280 / 211014.7 -1.3-1.0
2019-Mar-18 01:00N 44°54' W 061°42'9 8.5 290 / 151013.9 -1.4-1.0
2019-Mar-18 00:00N 44°54' W 061°30'1010.4 270 / 181012.2 -0.5-0.0
2019-Mar-17 23:00N 45°00' W 061°18'1010.4 240 / 251011.0 -0.6-0.1
2019-Mar-17 22:00N 45°06' W 061°06'8 8.5 230 / 291010.2 -0.6-0.1
2019-Mar-17 21:00N 45°06' W 060°54'1010.4 230 / 291009.4 -0.4 0.1
2019-Mar-17 20:00N 45°12' W 060°42'1717.4 230 / 281009.0 -0.4 0.1
2019-Mar-17 19:00N 45°24' W 060°24'1717.4 230 / 241008.1 -0.6-0.1
2019-Mar-17 18:00N 45°36' W 060°06'1717.4 220 / 261007.6 -1.2-0.7
2019-Mar-17 17:00N 45°48' W 059°48'1514.6 230 / 231007.5 -1.3-0.9
2019-Mar-17 16:00N 46°00' W 059°36'1818.0 230 / 181007.3 -1.2-0.8
2019-Mar-17 15:00N 46°18' W 059°36'1818.5 260 / 191006.9 -2.0-1.5
2019-Mar-17 14:00N 46°36' W 059°42'2019.8 270 / 261006.6 -2.9-2.5
2019-Mar-17 13:00N 46°54' W 059°54'1818.0 280 / 291005.4 -3.9-3.5
2019-Mar-17 12:00N 47°12' W 059°54'1414.5 280 / 291002.9 -4.8-4.4
2019-Mar-17 11:00N 47°24' W 060°06'1616.2 260 / 301003.2 -4.7-4.3
2019-Mar-17 10:00N 47°24' W 060°30'8 8.1 260 / 301002.5 -4.6-4.1
2019-Mar-17 09:00N 47°24' W 060°42'1616.2 260 / 321002.2 -4.5-4.1
2019-Mar-17 08:00N 47°24' W 061°06'1616.2 270 / 361001.1 -4.5-4.1
2019-Mar-17 07:00N 47°24' W 061°30'8 8.1 270 / 341000.7 -4.0-3.5
2019-Mar-17 06:00N 47°24' W 061°18'1616.2 270 / 38997.2 -3.3-2.8
2019-Mar-17 05:00N 47°24' W 060°54'1212.2 270 / 27997.5 -1.2-0.5
2019-Mar-17 04:00N 47°24' W 060°36'1212.2 270 / 24997.0 0.5 1.2
2019-Mar-17 03:00N 47°24' W 060°18'1212.2 240 / 16996.3 1.3 2.0
2019-Mar-17 02:00N 47°24' W 060°00'1312.7 240 / 20997.2 2.1 2.9
2019-Mar-17 01:00N 47°12' W 060°06'1413.6 230 / 18997.3 4.5 5.3
2019-Mar-17 00:00N 47°06' W 060°24'0 0.0 250 / 24996.3 3.9 4.9
2019-Mar-16 23:00N 47°06' W 060°24'4 4.1 250 / 24995.2 4.3 5.2
2019-Mar-16 22:00N 47°06' W 060°18'6 6.0 250 / 19995.2 4.4 5.5
2019-Mar-16 21:00N 47°00' W 060°18'0 0.0 070 / 2995.0 4.9 5.9
2019-Mar-16 20:00N 47°00' W 060°18'6 6.0 060 / 7994.4 2.6 3.6
2019-Mar-16 19:00N 46°54' W 060°18'1312.7 180 / 12994.8 5.9 7.0
2019-Mar-16 18:00N 46°42' W 060°12'1818.0 200 / 18995.5 5.2 6.2
2019-Mar-16 17:00N 46°24' W 060°12'1212.0 240 / 17997.4 6.3 7.3
2019-Mar-16 16:00N 46°12' W 060°12'0 0.0 200 / 15998.9 7.4 8.5
2019-Mar-16 15:00N 46°12' W 060°12'0 0.0 200 / 20999.7 6.2 7.3
2019-Mar-16 14:00N 46°12' W 060°12'0 0.0 110 / 21000.6 8.1 9.2
2019-Mar-16 13:00N 46°12' W 060°12'7 7.3 170 / 211000.1 7.5 8.6
2019-Mar-16 12:00N 46°18' W 060°06'7 7.3 180 / 311000.8 6.2 7.3
2019-Mar-16 11:00N 46°24' W 060°00'4 4.1 190 / 171003.3 5.3 6.4
2019-Mar-16 10:00N 46°24' W 059°54'0 0.0 210 / 161004.2 4.2 5.2
2019-Mar-16 09:00N 46°24' W 059°54'0 0.0 210 / 111005.1 3.9 4.9
2019-Mar-16 08:00N 46°24' W 059°54'0 0.0 220 / 161006.0 5.0 5.9
2019-Mar-16 07:00N 46°24' W 059°54'0 0.0 210 / 121006.3 4.8 5.7
2019-Mar-16 06:00N 46°24' W 059°54'0 0.0 210 / 151007.2 5.1 6.0
2019-Mar-16 05:00N 46°24' W 059°54'6 6.0 210 / 171007.8 5.0 5.9
2019-Mar-16 04:00N 46°18' W 059°54'4 4.1 220 / 171008.6 4.7 5.6
2019-Mar-16 03:00N 46°18' W 060°00'4 4.1 210 / 211009.7 3.9 4.7
2019-Mar-16 02:00N 46°18' W 060°06'0 0.0 200 / 261011.0 3.9 4.6
2019-Mar-16 01:00N 46°18' W 060°06'0 0.0 200 / 271012.2 3.6 4.3
2019-Mar-16 00:00N 46°18' W 060°06'7 7.3 220 / 281012.7 3.2 3.9
2019-Mar-15 23:00N 46°12' W 060°12'   170 / 91015.0 3.9 4.6
Track history (hours):
 
Tides and Currents Weather Stations Pressure Air Temp Water Temp Dewpoint Dewpoint Depression Visibility Wind Speed Wind Dir Waves Ship Positions

Oceanographic research ship CCGS Louis S. St-Laurent (Canada)

Detailed information on ship capabilities available from ARCUS's ALIAS (Arctic Logistics Information and Support) project.

Last reported at 2019-Mar-25 23:00 UTC. Time now 2019-Mar-25 23:53 UTC.
Position N 48°48' W 064°24'.

Length 119.63 m; beam 24.38 m; draft 9.9 m.

MMSI: 316165000.

Wind from 270 at 2 knots

Barometer 1011.9 mb
Air temperature -7.0 ° C
Dewpoint -6.9 ° C

Date/timePositionNaut miles runAvg speedWind from/ knotsBaromVisibWave heightAir tempDewpointWater temp
2019-Mar-25 23:00N 48°48' W 064°24'0 0.0 270 / 21011.9 -7.0-6.9
2019-Mar-25 22:00N 48°48' W 064°24'0 0.0 250 / 21010.5 -5.2-5.1
2019-Mar-25 21:00N 48°48' W 064°24'0 0.0 270 / 231009.3 -5.5-5.4
2019-Mar-25 20:00N 48°48' W 064°24'4 4.0 250 / 111008.7 -5.5-5.4
2019-Mar-25 19:00N 48°48' W 064°18'2019.9 240 / 301008.1 -6.0-6.0
2019-Mar-25 18:00N 48°36' W 063°54'1716.9 280 / 171008.8 -5.4-5.3
2019-Mar-25 17:00N 48°24' W 064°12'1717.0 270 / 131009.1 -5.3-5.2
2019-Mar-25 16:00N 48°12' W 064°30'2221.7 230 / 191009.9 -3.6-3.4
2019-Mar-25 15:00N 47°54' W 064°48'0 0.0 250 / 211010.9 -6.2-6.0
2019-Mar-25 14:00N 47°54' W 064°48'1010.0 270 / 201010.8 -7.0-6.8
2019-Mar-25 13:00N 48°00' W 064°36'1010.0 250 / 131011.8 -5.4-5.2
2019-Mar-25 12:00N 47°54' W 064°48'0 0.0 300 / 21012.3 -5.4-5.1
2019-Mar-25 11:00N 47°54' W 064°48'1312.7 300 / 91012.6 -7.4-7.2
2019-Mar-25 10:00N 48°06' W 064°42'8 8.0 270 / 121012.5 -7.4-7.4
2019-Mar-25 09:00N 48°06' W 064°30'1010.0 280 / 91012.4 -7.0-6.8
2019-Mar-25 08:00N 48°12' W 064°18'1212.0 340 / 101011.9 -6.9-6.6
2019-Mar-25 07:00N 48°12' W 064°00'1010.0 360 / 141011.0 -5.7-5.4
2019-Mar-25 06:00N 48°06' W 063°48'1212.0 350 / 171010.7 -5.0-4.6
2019-Mar-25 05:00N 48°06' W 063°30'1212.0 350 / 181010.4 -4.3-3.9
2019-Mar-25 04:00N 48°06' W 063°12'1616.0 320 / 151010.5 -3.2-2.7
2019-Mar-25 03:00N 48°06' W 062°48'1616.0 320 / 191009.3 -2.9-2.5
2019-Mar-25 02:00N 48°06' W 062°24'1717.1 320 / 191008.9 -2.8-2.3
2019-Mar-25 01:00N 48°00' W 062°00'1616.1 320 / 221008.1 -2.6-2.1
2019-Mar-25 00:00N 48°00' W 061°36'1313.5 320 / 251007.3 -2.8-2.3
2019-Mar-24 23:00N 47°54' W 061°18'1616.1 300 / 191005.1 -1.8-1.2
2019-Mar-24 22:00N 47°54' W 060°54'0 0.0 280 / 171003.6 -0.1 0.6
2019-Mar-24 21:00N 47°54' W 060°54'1616.1 270 / 321001.9 0.1 0.9
2019-Mar-24 20:00N 47°54' W 060°30'1212.1 240 / 221001.5 -0.8-0.1
2019-Mar-24 19:00N 47°54' W 060°12'0 0.0 260 / 151002.0 -0.6 0.1
2019-Mar-24 18:00N 47°54' W 060°12'0 0.0 260 / 161001.0 0.6 1.3
2019-Mar-24 17:00N 47°54' W 060°12'0 0.0 220 / 21000.8 1.6 2.4
2019-Mar-24 16:00N 47°54' W 060°12'0 0.0 220 / 21000.0 1.9 2.5
2019-Mar-24 15:00N 47°54' W 060°12'0 0.0 240 / 2999.5 1.7 2.5
2019-Mar-24 14:00N 47°54' W 060°12'8 8.0 250 / 2998.7 1.5 2.3
2019-Mar-24 13:00N 47°54' W 060°24'1414.5 280 / 15998.2 -0.7 0.1
2019-Mar-24 12:00N 47°42' W 060°36'1414.5 280 / 18998.3 -1.1-0.3
2019-Mar-24 11:00N 47°30' W 060°48'7 7.2 280 / 21997.5 -1.7-1.0
2019-Mar-24 10:00N 47°24' W 060°54'0 0.0 260 / 15996.5 -1.2-0.4
2019-Mar-24 09:00N 47°24' W 060°54'1312.7 300 / 24995.0 -1.4-0.5
2019-Mar-24 08:00N 47°36' W 060°48'6 6.0 310 / 26993.4 -1.5-0.7
2019-Mar-24 07:00N 47°42' W 060°48'7 7.2 310 / 26991.7 -1.2-0.2
2019-Mar-24 06:00N 47°48' W 060°42'6 6.0 290 / 25990.3 -1.2-0.3
2019-Mar-24 05:00N 47°42' W 060°42'1413.5 290 / 25988.1 -0.7 0.4
2019-Mar-24 04:00N 47°36' W 060°24'1413.5 260 / 17987.5 -0.0 1.1
2019-Mar-24 03:00N 47°30' W 060°06'1413.6 240 / 15987.3 0.4 1.5
2019-Mar-24 02:00N 47°24' W 059°48'1413.6 220 / 11987.1 0.4 1.5
2019-Mar-24 01:00N 47°30' W 059°30'1212.2 180 / 12987.4 -0.4 0.6
2019-Mar-24 00:00N 47°30' W 059°12'7 7.2 140 / 3987.5 -0.0 1.1
2019-Mar-23 23:00N 47°36' W 059°06'0 0.0 090 / 9987.4 0.7 1.8
2019-Mar-23 22:00N 47°36' W 059°06'0 0.0 090 / 9987.9 0.4 1.5
2019-Mar-23 21:00N 47°36' W 059°06'7 7.2 090 / 10988.3 0.6 1.6
2019-Mar-23 20:00N 47°30' W 059°00'0 0.0 100 / 13988.7 0.8 1.9
2019-Mar-23 19:00N 47°30' W 059°00'0 0.0 110 / 14989.2 0.7 1.7
2019-Mar-23 18:00N 47°30' W 059°00'0 0.0 090 / 10989.9 1.7 2.8
2019-Mar-23 17:00N 47°30' W 059°00'0 0.0 120 / 12991.1 1.9 3.2
2019-Mar-23 16:00N 47°30' W 059°00'0 0.0 110 / 7991.3 1.5 2.6
2019-Mar-23 15:00N 47°30' W 059°00'0 0.0 160 / 10991.6 1.6 2.7
2019-Mar-23 14:00N 47°30' W 059°00'4 4.1 160 / 8991.9 1.7 2.8
2019-Mar-23 13:00N 47°30' W 058°54'0 0.0 180 / 8991.8 1.6 2.8
2019-Mar-23 12:00N 47°30' W 058°54'0 0.0 120 / 8991.7 1.2 2.3
2019-Mar-23 11:00N 47°30' W 058°54'0 0.0 090 / 13991.7 0.5 1.6
2019-Mar-23 10:00N 47°30' W 058°54'0 0.0 080 / 16991.2 0.6 1.8
2019-Mar-23 09:00N 47°30' W 058°54'0 0.0 080 / 20991.3 0.7 1.8
2019-Mar-23 08:00N 47°30' W 058°54'0 0.0 070 / 22991.9 1.1 2.3
2019-Mar-23 07:00N 47°30' W 058°54'0 0.0 070 / 21993.2 0.8 1.8
2019-Mar-23 06:00N 47°30' W 058°54'0 0.0 080 / 18994.1 1.5 2.5
2019-Mar-23 05:00N 47°30' W 058°54'4 4.1 070 / 22994.9 0.8 1.8
2019-Mar-23 04:00N 47°30' W 059°00'1212.2 070 / 26994.6 1.0 2.0
2019-Mar-23 03:00N 47°30' W 059°18'2713.5 090 / 34994.7 1.1 2.0
2019-Mar-23 01:00N 47°48' W 059°48'6 6.0 110 / 45995.9 2.2 3.1
2019-Mar-23 00:00N 47°54' W 059°48'0 0.0 090 / 10998.4 2.3 3.2
2019-Mar-22 23:00N 47°54' W 059°48'0 0.0 090 / 351001.1 1.3 2.1
2019-Mar-22 22:00N 47°54' W 059°48'7 7.2 110 / 281003.8 2.9 3.7
2019-Mar-22 21:00N 47°48' W 059°42'1212.0 130 / 321005.6 1.9 2.7
2019-Mar-22 20:00N 47°36' W 059°42'1212.0 110 / 331007.5 0.1 0.9
2019-Mar-22 19:00N 47°24' W 059°42'1312.7 110 / 281010.8 0.5 1.3
2019-Mar-22 18:00N 47°12' W 059°36'1212.0 120 / 231012.4 0.7 1.5
2019-Mar-22 17:00N 47°00' W 059°36'7 7.3 140 / 241014.0 0.6 1.4
2019-Mar-22 16:00N 46°54' W 059°30'1212.0 140 / 191014.8 1.5 2.3
2019-Mar-22 15:00N 46°42' W 059°30'1514.5 120 / 231015.2 1.3 2.1
2019-Mar-22 14:00N 46°54' W 059°42'1312.7 140 / 191016.5 1.2 2.0
2019-Mar-22 13:00N 47°06' W 059°48'1212.0 120 / 141017.7 -0.0 0.7
2019-Mar-22 12:00N 47°18' W 059°48'1818.5 110 / 211017.7 -0.6 0.1
2019-Mar-22 11:00N 47°36' W 059°42'1212.0 110 / 221019.2 -1.5-0.9
2019-Mar-22 10:00N 47°48' W 059°42'7 7.2 140 / 91020.0 0.4 1.0
2019-Mar-22 09:00N 47°42' W 059°36'0 0.0 140 / 201020.5 -1.5-1.0
2019-Mar-22 08:00N 47°42' W 059°36'6 6.0 140 / 161021.2 -1.5-1.0
2019-Mar-22 07:00N 47°36' W 059°36'1818.0 160 / 141022.1 -0.7-0.2
2019-Mar-22 06:00N 47°18' W 059°36'2424.3 180 / 181022.9 0.2 0.7
2019-Mar-22 05:00N 46°54' W 059°30'1212.0 190 / 181023.6 0.1 0.7
2019-Mar-22 04:00N 46°42' W 059°30'1818.5 190 / 151024.3 -0.1 0.5
2019-Mar-22 03:00N 46°24' W 059°36'1818.0 200 / 161025.0 -0.4 0.1
2019-Mar-22 02:00N 46°06' W 059°36'1312.7 190 / 151025.7 -0.7-0.1
2019-Mar-22 01:00N 45°54' W 059°42'1514.6 190 / 171026.6 -0.5 0.1
2019-Mar-22 00:00N 45°42' W 059°54'2120.6 190 / 171026.2 -0.5 0.1
2019-Mar-21 23:00N 45°30' W 060°18'1717.4 190 / 121025.6 -0.5 0.1
2019-Mar-21 22:00N 45°18' W 060°36'1717.5 190 / 101025.6 -0.2 0.4
2019-Mar-21 21:00N 45°06' W 060°54'1818.0 200 / 181025.8 0.2 0.8
2019-Mar-21 20:00N 45°00' W 061°18'1818.0 200 / 161026.1 0.4 1.0
2019-Mar-21 19:00N 44°54' W 061°42'1414.1 190 / 171026.3 0.6 1.1
2019-Mar-21 18:00N 44°48' W 062°00'1818.1 190 / 141026.4 0.7 1.2
2019-Mar-21 17:00N 44°42' W 062°24'2120.9 200 / 121027.2 0.5 1.0
2019-Mar-21 16:00N 44°30' W 062°48'1818.2 210 / 101027.7 0.8 1.4
2019-Mar-21 15:00N 44°24' W 063°12'1414.2 190 / 81028.1 0.7 1.2
2019-Mar-21 14:00N 44°30' W 063°30'116.3 190 / 101027.9 1.8 2.3
2019-Mar-21 13:56N 44°31' W 063°31'613.3
2019-Mar-21 13:31N 44°36' W 063°33'4 7.4
2019-Mar-21 13:00N 44°40' W 063°35'2170.1
2019-Mar-21 13:00N 44°42' W 063°36'2 3.0 140 / 31028.2 0.6 1.1
2019-Mar-21 12:29N 44°41' W 063°36'2 3.1
2019-Mar-21 12:00N 44°42' W 063°36'2547.3 150 / 31028.3 -0.8-0.3
2019-Mar-21 11:59N 44°41' W 063°36'0 0.0
2019-Mar-21 11:29N 44°41' W 063°36'2 3.1
2019-Mar-21 11:00N 44°42' W 063°36'2497.2 150 / 21028.1 -0.5-0.1
2019-Mar-21 10:59N 44°41' W 063°36'0 0.0
2019-Mar-21 10:29N 44°41' W 063°36'2 3.1
2019-Mar-21 10:00N 44°42' W 063°36'2544.9 170 / 11028.1 -2.3-2.1
2019-Mar-21 09:59N 44°41' W 063°36'0 0.0
2019-Mar-21 09:29N 44°41' W 063°36'2 3.1
2019-Mar-21 09:00N 44°42' W 063°36'2547.3 260 / 11028.2 -1.2-0.9
2019-Mar-21 08:59N 44°41' W 063°36'0 0.0
2019-Mar-21 08:29N 44°41' W 063°36'2 3.1
2019-Mar-21 08:00N 44°42' W 063°36'2547.0 260 / 31028.1 -0.8-0.6
2019-Mar-21 07:59N 44°41' W 063°36'0 0.0
2019-Mar-21 07:29N 44°41' W 063°36'2 3.1
2019-Mar-21 07:00N 44°42' W 063°36'2455.8 240 / 31028.6 -1.2-1.0
2019-Mar-21 06:59N 44°41' W 063°36'0 0.0
2019-Mar-21 06:29N 44°41' W 063°36'2 3.1
2019-Mar-21 06:00N 44°42' W 063°36'2497.2 250 / 11028.9 -1.5-1.4
2019-Mar-21 05:59N 44°41' W 063°36'0 0.0
2019-Mar-21 05:29N 44°41' W 063°36'2 3.1
2019-Mar-21 05:00N 44°42' W 063°36'2547.0 1028.7 -1.4-1.2
2019-Mar-21 04:59N 44°41' W 063°36'0 0.0
2019-Mar-21 04:29N 44°41' W 063°36'2 3.1
2019-Mar-21 04:00N 44°42' W 063°36'2456.1 270 / 21028.6 -1.0-0.9
2019-Mar-21 03:59N 44°41' W 063°36'0 0.0
2019-Mar-21 03:29N 44°41' W 063°36'2 3.1
2019-Mar-21 03:00N 44°42' W 063°36'2547.0 270 / 31028.5 -0.1-0.0
2019-Mar-21 02:59N 44°41' W 063°36'0 0.0
2019-Mar-21 02:29N 44°41' W 063°36'2 3.1
2019-Mar-21 02:00N 44°42' W 063°36'2455.8 1027.9 -0.4-0.1
2019-Mar-21 01:59N 44°41' W 063°36'0 0.0
2019-Mar-21 01:29N 44°41' W 063°36'0 0.0
2019-Mar-21 00:59N 44°41' W 063°36'0 0.0
2019-Mar-21 00:29N 44°41' W 063°36'2 3.1
2019-Mar-21 00:00N 44°42' W 063°36'2497.2 220 / 41026.8 0.2 0.5
2019-Mar-20 23:59N 44°41' W 063°36'0 0.0
2019-Mar-20 23:29N 44°41' W 063°36'2 3.1
2019-Mar-20 23:00N 44°42' W 063°36'0 0.0 210 / 31026.4 0.8 1.1
2019-Mar-20 22:00N 44°42' W 063°36'0 0.0 240 / 61026.1 2.0 2.2
2019-Mar-20 21:00N 44°42' W 063°36'0 0.0 240 / 91026.1 2.8 3.0
2019-Mar-20 20:00N 44°42' W 063°36'0 0.0 220 / 71026.2 3.3 3.5
2019-Mar-20 19:00N 44°42' W 063°36'0 0.0 240 / 91026.4 4.5 4.7
2019-Mar-20 18:00N 44°42' W 063°36'0 0.0 260 / 71027.0 4.6 4.8
2019-Mar-20 17:00N 44°42' W 063°36'0 0.0 260 / 91028.0 3.6 3.8
2019-Mar-20 16:00N 44°42' W 063°36'0 0.0 260 / 71028.3 3.0 3.1
2019-Mar-20 15:00N 44°42' W 063°36'0 0.0 290 / 71028.7 1.3 1.4
2019-Mar-20 14:00N 44°42' W 063°36'0 0.0 280 / 31029.1 1.5 1.7
2019-Mar-20 13:00N 44°42' W 063°36'0 0.0 240 / 11029.1 -0.6-0.4
2019-Mar-20 12:00N 44°42' W 063°36'0 0.0 260 / 11028.9 -2.2-2.0
2019-Mar-20 11:00N 44°42' W 063°36'0 0.0 240 / 11028.7 -3.1-2.9
2019-Mar-20 10:00N 44°42' W 063°36'0 0.0 280 / 31027.9 -3.7-3.6
2019-Mar-20 09:00N 44°42' W 063°36'0 0.0 280 / 31027.5 -3.9-3.8
2019-Mar-20 08:00N 44°42' W 063°36'0 0.0 280 / 61027.4 -3.7-3.6
2019-Mar-20 07:00N 44°42' W 063°36'0 0.0 1027.6 -2.8-2.6
2019-Mar-20 06:00N 44°42' W 063°36'0 0.0 290 / 11027.7 -2.0-1.9
2019-Mar-20 05:00N 44°42' W 063°36'0 0.0 1027.6 -3.4-3.3
2019-Mar-20 04:00N 44°42' W 063°36'0 0.0 070 / 11027.5 -2.8-2.7
2019-Mar-20 03:00N 44°42' W 063°36'0 0.0 1027.4 -2.4-2.2
2019-Mar-20 02:00N 44°42' W 063°36'0 0.0 290 / 31027.2 -1.4-1.3
2019-Mar-20 01:00N 44°42' W 063°36'0 0.0 280 / 11026.9 -0.5-0.3
2019-Mar-20 00:00N 44°42' W 063°36'0 0.0 1026.4 -0.3-0.1
2019-Mar-19 23:00N 44°42' W 063°36'0 0.0 1025.4 0.3 0.5
2019-Mar-19 22:00N 44°42' W 063°36'0 0.0 300 / 51024.6 2.2 2.3
2019-Mar-19 21:00N 44°42' W 063°36'0 0.0 280 / 31024.1 2.2 2.4
2019-Mar-19 20:00N 44°42' W 063°36'0 0.0 280 / 61024.3 1.4 1.6
2019-Mar-19 19:00N 44°42' W 063°36'0 0.0 1024.5 2.7 3.0
2019-Mar-19 18:00N 44°42' W 063°36'0 0.0 280 / 31024.6 2.5 2.8
2019-Mar-19 17:00N 44°42' W 063°36'0 0.0 110 / 61025.4 -0.3-0.1
2019-Mar-19 16:00N 44°42' W 063°36'0 0.0 280 / 31025.6 0.5 0.7
2019-Mar-19 15:00N 44°42' W 063°36'0 0.0 360 / 11026.0 0.7 0.9
2019-Mar-19 14:00N 44°42' W 063°36'0 0.0 280 / 41026.2 -1.7-1.5
2019-Mar-19 13:00N 44°42' W 063°36'0 0.0 270 / 21026.0 -2.5-2.2
2019-Mar-19 12:00N 44°42' W 063°36'214.1 340 / 21025.7 -4.0-3.7
2019-Mar-19 11:53N 44°41' W 063°38'0 0.2
2019-Mar-19 11:29N 44°41' W 063°38'2 3.3
2019-Mar-19 11:00N 44°42' W 063°36'225.0 320 / 31025.5 -5.7-5.5
2019-Mar-19 10:56N 44°41' W 063°37'3 6.3
2019-Mar-19 10:30N 44°39' W 063°34'5 8.7
2019-Mar-19 10:00N 44°36' W 063°30'3 9.2 1024.9 -4.2-4.0
2019-Mar-19 09:38N 44°39' W 063°33'3 5.1
2019-Mar-19 09:00N 44°36' W 063°30'0 0.0 310 / 11024.3 -3.7-3.5
2019-Mar-19 08:00N 44°36' W 063°30'0 0.0 320 / 31023.6 -2.7-2.5
2019-Mar-19 07:00N 44°36' W 063°30'0 0.0 310 / 31023.8 -2.8-2.5
2019-Mar-19 06:00N 44°36' W 063°30'0 0.0 310 / 51023.9 -2.3-2.0
2019-Mar-19 05:00N 44°36' W 063°30'0 0.0 290 / 51023.8 -1.8-1.5
2019-Mar-19 04:00N 44°36' W 063°30'0 0.0 270 / 91023.6 -1.5-1.3
2019-Mar-19 03:00N 44°36' W 063°30'0 0.0 270 / 81023.6 -1.6-1.4
2019-Mar-19 02:00N 44°36' W 063°30'0 0.0 270 / 71023.3 -0.9-0.7
2019-Mar-19 01:00N 44°36' W 063°30'0 0.0 290 / 71022.8 -0.6-0.4
2019-Mar-19 00:00N 44°36' W 063°30'0 0.0 300 / 101021.6 -0.1 0.1
2019-Mar-18 23:00N 44°36' W 063°30'0 0.0 300 / 131020.4 0.6 0.8
2019-Mar-18 22:00N 44°36' W 063°30'0 0.0 280 / 131019.2 1.6 1.9
2019-Mar-18 21:00N 44°36' W 063°30'0 0.0 290 / 131018.3 1.6 1.9
2019-Mar-18 20:00N 44°36' W 063°30'0 0.0 270 / 111018.0 1.7 1.9
2019-Mar-18 19:00N 44°36' W 063°30'0 0.0 260 / 161018.3 1.0 1.3
2019-Mar-18 18:00N 44°36' W 063°30'0 0.0 250 / 121018.4 0.4 0.6
2019-Mar-18 17:00N 44°36' W 063°30'0 0.0 280 / 101018.6 -0.4-0.2
2019-Mar-18 16:00N 44°36' W 063°30'0 0.0 270 / 131019.0 -1.1-0.9
2019-Mar-18 15:00N 44°36' W 063°30'0 0.0 290 / 131019.3 -2.0-1.8
2019-Mar-18 14:00N 44°36' W 063°30'0 0.0 270 / 131019.5 -2.5-2.2
2019-Mar-18 13:00N 44°36' W 063°30'0 0.0 260 / 101019.6 -2.9-2.6
2019-Mar-18 12:00N 44°36' W 063°30'0 0.0 280 / 91019.7 -3.2-2.9
2019-Mar-18 11:00N 44°36' W 063°30'3117.4 250 / 71019.3 -3.7-3.4
2019-Mar-18 10:58N 44°39' W 063°33'3 3.5
2019-Mar-18 10:00N 44°36' W 063°30'7 7.4 220 / 71018.9 -4.9-4.7
2019-Mar-18 09:00N 44°30' W 063°24'4 4.3 270 / 71018.4 -3.8-3.6
2019-Mar-18 08:00N 44°30' W 063°18'1312.8 310 / 101018.0 -3.4-3.2
2019-Mar-18 07:00N 44°30' W 063°00'1010.4 330 / 171017.5 -2.9-2.7
2019-Mar-18 06:00N 44°36' W 062°48'9 8.5 320 / 151017.6 -2.4-2.2
2019-Mar-18 05:00N 44°36' W 062°36'1010.4 290 / 151016.9 -1.9-1.6
2019-Mar-18 04:00N 44°42' W 062°24'1414.1 280 / 211015.8 -1.5-1.2
2019-Mar-18 03:00N 44°48' W 062°06'9 8.5 260 / 211015.4 -1.4-1.1
2019-Mar-18 02:00N 44°48' W 061°54'1010.4 280 / 211014.7 -1.3-1.0
2019-Mar-18 01:00N 44°54' W 061°42'9 8.5 290 / 151013.9 -1.4-1.0
2019-Mar-18 00:00N 44°54' W 061°30'1010.4 270 / 181012.2 -0.5-0.0
2019-Mar-17 23:00N 45°00' W 061°18'1010.4 240 / 251011.0 -0.6-0.1
2019-Mar-17 22:00N 45°06' W 061°06'8 8.5 230 / 291010.2 -0.6-0.1
2019-Mar-17 21:00N 45°06' W 060°54'1010.4 230 / 291009.4 -0.4 0.1
2019-Mar-17 20:00N 45°12' W 060°42'1717.4 230 / 281009.0 -0.4 0.1
2019-Mar-17 19:00N 45°24' W 060°24'1717.4 230 / 241008.1 -0.6-0.1
2019-Mar-17 18:00N 45°36' W 060°06'1717.4 220 / 261007.6 -1.2-0.7
2019-Mar-17 17:00N 45°48' W 059°48'1514.6 230 / 231007.5 -1.3-0.9
2019-Mar-17 16:00N 46°00' W 059°36'1818.0 230 / 181007.3 -1.2-0.8
2019-Mar-17 15:00N 46°18' W 059°36'1818.5 260 / 191006.9 -2.0-1.5
2019-Mar-17 14:00N 46°36' W 059°42'2019.8 270 / 261006.6 -2.9-2.5
2019-Mar-17 13:00N 46°54' W 059°54'1818.0 280 / 291005.4 -3.9-3.5
2019-Mar-17 12:00N 47°12' W 059°54'1414.5 280 / 291002.9 -4.8-4.4
2019-Mar-17 11:00N 47°24' W 060°06'1616.2 260 / 301003.2 -4.7-4.3
2019-Mar-17 10:00N 47°24' W 060°30'8 8.1 260 / 301002.5 -4.6-4.1
2019-Mar-17 09:00N 47°24' W 060°42'1616.2 260 / 321002.2 -4.5-4.1
2019-Mar-17 08:00N 47°24' W 061°06'1616.2 270 / 361001.1 -4.5-4.1
2019-Mar-17 07:00N 47°24' W 061°30'8 8.1 270 / 341000.7 -4.0-3.5
2019-Mar-17 06:00N 47°24' W 061°18'1616.2 270 / 38997.2 -3.3-2.8
2019-Mar-17 05:00N 47°24' W 060°54'1212.2 270 / 27997.5 -1.2-0.5
2019-Mar-17 04:00N 47°24' W 060°36'1212.2 270 / 24997.0 0.5 1.2
2019-Mar-17 03:00N 47°24' W 060°18'1212.2 240 / 16996.3 1.3 2.0
2019-Mar-17 02:00N 47°24' W 060°00'1312.7 240 / 20997.2 2.1 2.9
2019-Mar-17 01:00N 47°12' W 060°06'1413.6 230 / 18997.3 4.5 5.3
2019-Mar-17 00:00N 47°06' W 060°24'0 0.0 250 / 24996.3 3.9 4.9
2019-Mar-16 23:00N 47°06' W 060°24'4 4.1 250 / 24995.2 4.3 5.2
2019-Mar-16 22:00N 47°06' W 060°18'6 6.0 250 / 19995.2 4.4 5.5
2019-Mar-16 21:00N 47°00' W 060°18'0 0.0 070 / 2995.0 4.9 5.9
2019-Mar-16 20:00N 47°00' W 060°18'6 6.0 060 / 7994.4 2.6 3.6
2019-Mar-16 19:00N 46°54' W 060°18'1312.7 180 / 12994.8 5.9 7.0
2019-Mar-16 18:00N 46°42' W 060°12'1818.0 200 / 18995.5 5.2 6.2
2019-Mar-16 17:00N 46°24' W 060°12'1212.0 240 / 17997.4 6.3 7.3
2019-Mar-16 16:00N 46°12' W 060°12'0 0.0 200 / 15998.9 7.4 8.5
2019-Mar-16 15:00N 46°12' W 060°12'0 0.0 200 / 20999.7 6.2 7.3
2019-Mar-16 14:00N 46°12' W 060°12'0 0.0 110 / 21000.6 8.1 9.2
2019-Mar-16 13:00N 46°12' W 060°12'7 7.3 170 / 211000.1 7.5 8.6
2019-Mar-16 12:00N 46°18' W 060°06'7 7.3 180 / 311000.8 6.2 7.3
2019-Mar-16 11:00N 46°24' W 060°00'4 4.1 190 / 171003.3 5.3 6.4
2019-Mar-16 10:00N 46°24' W 059°54'0 0.0 210 / 161004.2 4.2 5.2
2019-Mar-16 09:00N 46°24' W 059°54'0 0.0 210 / 111005.1 3.9 4.9
2019-Mar-16 08:00N 46°24' W 059°54'0 0.0 220 / 161006.0 5.0 5.9
2019-Mar-16 07:00N 46°24' W 059°54'0 0.0 210 / 121006.3 4.8 5.7
2019-Mar-16 06:00N 46°24' W 059°54'0 0.0 210 / 151007.2 5.1 6.0
2019-Mar-16 05:00N 46°24' W 059°54'6 6.0 210 / 171007.8 5.0 5.9
2019-Mar-16 04:00N 46°18' W 059°54'4 4.1 220 / 171008.6 4.7 5.6
2019-Mar-16 03:00N 46°18' W 060°00'4 4.1 210 / 211009.7 3.9 4.7
2019-Mar-16 02:00N 46°18' W 060°06'0 0.0 200 / 261011.0 3.9 4.6
2019-Mar-16 01:00N 46°18' W 060°06'0 0.0 200 / 271012.2 3.6 4.3
2019-Mar-16 00:00N 46°18' W 060°06'7 7.3 220 / 281012.7 3.2 3.9
2019-Mar-15 23:00N 46°12' W 060°12'   170 / 91015.0 3.9 4.6

Dump ship's entire track history